aviador You're here:

GQPP Decoded Metar

NOUADHIBOU in MAURITANIA
Report Time2018-02-25 11:00:00
UTC Time2018-02-25 11:11:39
Flight Rules mvfr MVFR
Wind200° at 12 kt
W.Decomp.*RWY 20: 11.9 kt HW 1.3 kt RCW
W.Rank200° ranks 36
Current wind is above 200° avg. (7.9)
Visibility6000 m
Phenomena:N/A
Clouds:Broken 010 Hf
Expected CloudBase > 1,600 ft AGL from Temp-Dew spread
Ceiling1,000 ft
Temp21°C (ISA +6)
Dew Point17°C (78% RH)
AAT19.1°C
QNH1013 hPa
Density Alt971 ft
Elevation10 ft
Report Wrong Elevation
Raw Report
METAR GQPP 251100Z 20012KT 6000 BKN010 21/17 Q1013 NOSIG=

Extra information for GQPP:More info

Metar Taf Metar & Taf Last 4 Metars F.Rules Stats Wind Profile Meteogram Temp Stats Airport Information Weather charts Add Link Nearby VenuesMetar ALERT Operation Metar Decoded Social comments